Terminal Aerodrome Forecast
Issued by NWS

Home | Current Version | Previous Version | Text Only | Print | Product List | Glossary On
Versions: 1 2 3 4 5 6 7 8 9 10 11 12 13 14 15
187
FTUS42 KMLB 301139
TAFFPR
TAF
KFPR 301139Z 3012/3112 14004KT P6SM VCSH FEW018 SCT050 SCT070
      TEMPO 3012/3014 3SM SHRA BKN020 BKN025
     FM301400 15011KT P6SM -RA SCT025 BKN050 BKN250
     FM301700 16014G21KT P6SM -RA VCTS SCT025CB BKN050 BKN120
     FM310000 15012G19KT P6SM VCSH FEW020 SCT050 BKN150=

USA.gov is the U.S. government's official web portal to all federal, state and local government web resources and services.